createdAt,value
2018-06-25T00:00:07.318Z,102052.33
2018-06-25T00:02:36.783Z,102054.77
2018-06-25T00:05:06.335Z,102054.44
2018-06-25T00:07:35.781Z,102054.75
2018-06-25T00:10:05.240Z,102057.58
2018-06-25T00:12:34.730Z,102059.47
2018-06-25T00:15:04.338Z,102060.02
2018-06-25T00:17:33.773Z,102062.05
2018-06-25T00:20:03.248Z,102067.27
2018-06-25T00:22:33.328Z,102061.02
2018-06-25T00:25:02.797Z,102062.05
2018-06-25T00:27:32.337Z,102067.39
2018-06-25T00:30:01.735Z,102070.37
2018-06-25T00:32:31.293Z,102068.25
2018-06-25T00:35:00.828Z,102064.59
2018-06-25T00:37:30.304Z,102063.11
2018-06-25T00:39:59.807Z,102063.50
2018-06-25T00:42:29.304Z,102067.89
2018-06-25T00:44:58.743Z,102065.29
2018-06-25T00:47:28.223Z,102062.26
2018-06-25T00:49:57.762Z,102055.99
2018-06-25T00:52:27.296Z,102057.35
2018-06-25T00:54:56.768Z,102054.33
2018-06-25T00:57:26.215Z,102051.47
2018-06-25T00:59:56.878Z,102056.86
2018-06-25T01:02:26.451Z,102059.72
2018-06-25T01:04:55.893Z,102062.45
2018-06-25T01:07:25.388Z,102061.20
2018-06-25T01:09:54.893Z,102064.91
2018-06-25T01:12:24.377Z,102061.20
2018-06-25T01:14:53.802Z,102068.63
2018-06-25T01:17:23.250Z,102062.56
2018-06-25T01:19:52.864Z,102064.28
2018-06-25T01:22:22.370Z,102059.33
2018-06-25T01:24:51.835Z,102052.84
2018-06-25T01:27:21.283Z,102048.25
2018-06-25T01:29:50.844Z,102042.88
2018-06-25T01:32:20.343Z,102044.34
2018-06-25T01:34:49.751Z,102056.48
2018-06-25T01:37:19.309Z,102051.11
2018-06-25T01:39:48.755Z,102053.22
2018-06-25T01:42:18.208Z,102049.97
2018-06-25T01:44:47.661Z,102057.04
2018-06-25T01:47:17.223Z,102052.08
2018-06-25T01:49:46.690Z,102051.91
2018-06-25T01:52:16.153Z,102056.86
2018-06-25T01:54:45.581Z,102055.43
2018-06-25T01:57:15.147Z,102047.82
2018-06-25T01:59:44.686Z,102045.11
2018-06-25T02:02:14.090Z,102041.13
2018-06-25T02:04:43.612Z,102049.69
2018-06-25T02:07:13.072Z,102051.24
2018-06-25T02:09:42.519Z,102053.41
2018-06-25T02:12:11.966Z,102060.34
2018-06-25T02:14:41.459Z,102056.55
2018-06-25T02:17:11.509Z,102051.05
2018-06-25T02:19:40.942Z,102055.40
2018-06-25T02:22:10.420Z,102054.03
2018-06-25T02:24:39.918Z,102058.23
2018-06-25T02:27:09.864Z,102055.38
2018-06-25T02:29:39.316Z,102058.97
2018-06-25T02:32:08.921Z,102058.77
2018-06-25T02:34:38.363Z,102061.63
2018-06-25T02:37:07.860Z,102065.45
2018-06-25T02:39:37.338Z,102070.58
2018-06-25T02:42:06.871Z,102080.11
2018-06-25T02:44:36.379Z,102069.80
2018-06-25T02:47:05.844Z,102063.28
2018-06-25T02:49:35.261Z,102062.44
2018-06-25T02:52:04.721Z,102057.98
2018-06-25T02:54:34.332Z,102058.50
2018-06-25T02:57:03.795Z,102062.80
2018-06-25T02:59:33.220Z,102063.55
2018-06-25T03:02:02.670Z,102062.42
2018-06-25T03:04:32.093Z,102064.78
2018-06-25T03:07:01.591Z,102065.95
2018-06-25T03:09:31.074Z,102069.11
2018-06-25T03:12:00.736Z,102071.34
2018-06-25T03:14:30.128Z,102069.23
2018-06-25T03:16:59.616Z,102083.10
2018-06-25T03:19:29.789Z,102081.91
2018-06-25T03:21:59.350Z,102089.30
2018-06-25T03:24:29.006Z,102084.08
2018-06-25T03:26:58.445Z,102086.43
2018-06-25T03:29:27.963Z,102072.90
2018-06-25T03:31:57.404Z,102071.39
2018-06-25T03:34:26.876Z,102068.32
2018-06-25T03:36:56.305Z,102076.55
2018-06-25T03:39:26.225Z,102078.76
2018-06-25T03:41:55.687Z,102083.16
2018-06-25T03:44:25.109Z,102088.00
2018-06-25T03:46:54.703Z,102081.80
2018-06-25T03:49:24.175Z,102084.90
2018-06-25T03:51:53.617Z,102088.98
2018-06-25T03:54:23.070Z,102095.13
2018-06-25T03:56:52.710Z,102090.23
2018-06-25T03:59:22.203Z,102097.67
2018-06-25T04:01:51.637Z,102099.70
2018-06-25T04:04:21.633Z,102109.56
2018-06-25T04:06:51.205Z,102107.39
2018-06-25T04:09:20.803Z,102110.98
2018-06-25T04:11:50.225Z,102110.05
2018-06-25T04:14:19.655Z,102107.22
2018-06-25T04:16:49.170Z,102105.33
2018-06-25T04:19:18.748Z,102110.55
2018-06-25T04:21:49.195Z,102110.72
2018-06-25T04:24:18.632Z,102118.42
2018-06-25T04:26:48.141Z,102120.34
2018-06-25T04:29:17.605Z,102123.38
2018-06-25T04:31:47.220Z,102120.45
2018-06-25T04:34:16.762Z,102119.78
2018-06-25T04:36:46.404Z,102122.20
2018-06-25T04:39:16.029Z,102115.30
2018-06-25T04:41:45.500Z,102128.16
2018-06-25T04:44:14.939Z,102124.95
2018-06-25T04:46:44.476Z,102124.34
2018-06-25T04:49:14.108Z,102127.39
2018-06-25T04:51:43.616Z,102127.30
2018-06-25T04:54:13.238Z,102117.30
2018-06-25T04:56:42.836Z,102118.48
2018-06-25T04:59:12.344Z,102124.45
2018-06-25T05:01:41.811Z,102123.19
2018-06-25T05:04:11.412Z,102129.39
2018-06-25T05:06:40.938Z,102132.80
2018-06-25T05:09:11.156Z,102142.78
2018-06-25T05:11:41.158Z,102135.48
2018-06-25T05:14:11.936Z,102137.96
2018-06-25T05:16:41.522Z,102136.53
2018-06-25T05:19:10.970Z,102136.53
2018-06-25T05:21:40.434Z,102135.22
2018-06-25T05:24:09.907Z,102145.19
2018-06-25T05:26:39.476Z,102142.73
2018-06-25T05:29:09.313Z,102144.03
2018-06-25T05:31:38.782Z,102144.51
2018-06-25T05:34:08.297Z,102148.05
2018-06-25T05:36:37.982Z,102150.83
2018-06-25T05:39:11.042Z,102147.41
2018-06-25T05:41:41.285Z,102149.19
2018-06-25T05:44:11.025Z,102151.55
2018-06-25T05:46:40.500Z,102152.58
2018-06-25T05:49:10.285Z,102157.16
2018-06-25T05:51:39.877Z,102156.83
2018-06-25T05:54:09.364Z,102154.14
2018-06-25T05:56:38.832Z,102153.72
2018-06-25T05:59:08.250Z,102156.76
2018-06-25T06:01:37.823Z,102158.58
2018-06-25T06:04:07.398Z,102159.64
2018-06-25T06:06:36.847Z,102164.30
2018-06-25T06:09:09.059Z,102159.22
2018-06-25T06:11:38.603Z,102162.22
2018-06-25T06:14:08.207Z,102161.23
2018-06-25T06:16:37.669Z,102167.80
2018-06-25T06:19:07.100Z,102170.16
2018-06-25T06:21:36.558Z,102181.58
2018-06-25T06:24:06.089Z,102182.36
2018-06-25T06:26:35.500Z,102186.92
2018-06-25T06:29:04.967Z,102178.98
2018-06-25T06:31:34.664Z,102182.70
2018-06-25T06:34:04.130Z,102190.02
2018-06-25T06:36:34.343Z,102187.42
2018-06-25T06:39:04.006Z,102190.05
2018-06-25T06:41:33.536Z,102196.48
2018-06-25T06:44:03.039Z,102204.05
2018-06-25T06:46:32.483Z,102199.98
2018-06-25T06:49:02.930Z,102208.58
2018-06-25T06:51:32.807Z,102211.38
2018-06-25T06:54:02.956Z,102211.44
2018-06-25T06:56:32.552Z,102213.48
2018-06-25T06:59:02.000Z,102212.11
2018-06-25T07:01:32.319Z,102212.73
2018-06-25T07:04:01.968Z,102218.81
2018-06-25T07:06:31.651Z,102216.37
2018-06-25T07:09:01.355Z,102213.63
2018-06-25T07:11:30.749Z,102216.63
2018-06-25T07:14:00.333Z,102218.38
2018-06-25T07:16:29.882Z,102212.80
2018-06-25T07:18:59.491Z,102216.27
2018-06-25T07:21:29.021Z,102218.40
2018-06-25T07:24:05.142Z,102219.52
2018-06-25T07:26:34.711Z,102219.27
2018-06-25T07:29:04.194Z,102218.38
2018-06-25T07:31:33.795Z,102216.41
2018-06-25T07:34:03.483Z,102216.38
2018-06-25T07:36:32.970Z,102220.23
2018-06-25T07:39:02.458Z,102222.12
2018-06-25T07:41:32.011Z,102216.53
2018-06-25T07:44:02.010Z,102221.27
2018-06-25T07:46:31.623Z,102223.98
2018-06-25T07:49:01.079Z,102222.38
2018-06-25T07:51:30.628Z,102223.73
2018-06-25T07:54:00.176Z,102220.48
2018-06-25T07:56:29.658Z,102223.75
2018-06-25T07:58:59.235Z,102223.13
2018-06-25T08:01:29.919Z,102222.01
2018-06-25T08:03:59.180Z,102221.77
2018-06-25T08:06:28.619Z,102228.16
2018-06-25T08:08:58.166Z,102230.72
2018-06-25T08:11:27.679Z,102235.77
2018-06-25T08:13:57.202Z,102233.56
2018-06-25T08:16:26.625Z,102237.46
2018-06-25T08:18:56.282Z,102244.59
2018-06-25T08:21:25.839Z,102240.06
2018-06-25T08:23:55.316Z,102241.27
2018-06-25T08:26:24.808Z,102241.56
2018-06-25T08:28:54.289Z,102239.70
2018-06-25T08:31:23.836Z,102234.03
2018-06-25T08:33:53.504Z,102244.05
2018-06-25T08:36:22.909Z,102242.75
2018-06-25T08:38:52.658Z,102251.69
2018-06-25T08:41:22.439Z,102251.59
2018-06-25T08:43:51.872Z,102249.44
2018-06-25T08:46:21.299Z,102247.30
2018-06-25T08:48:57.524Z,102240.72
2018-06-25T08:51:26.999Z,102243.23
2018-06-25T08:53:57.757Z,102243.89
2018-06-25T08:56:27.272Z,102253.17
2018-06-25T08:58:56.907Z,102253.31
2018-06-25T09:01:26.371Z,102255.55
2018-06-25T09:03:55.878Z,102255.21
2018-06-25T09:06:25.473Z,102253.98
2018-06-25T09:08:55.036Z,102255.41
2018-06-25T09:11:24.505Z,102250.77
2018-06-25T09:13:53.988Z,102247.28
2018-06-25T09:16:23.563Z,102244.88
2018-06-25T09:18:53.135Z,102251.91
2018-06-25T09:21:22.655Z,102251.16
2018-06-25T09:23:52.105Z,102251.50
2018-06-25T09:26:21.684Z,102249.34
2018-06-25T09:28:51.842Z,102246.80
2018-06-25T09:31:21.357Z,102250.77
2018-06-25T09:33:50.816Z,102249.39
2018-06-25T09:36:20.447Z,102248.64
2018-06-25T09:38:49.960Z,102257.29
2018-06-25T09:41:19.489Z,102258.23
2018-06-25T09:43:51.926Z,102259.08
2018-06-25T09:46:21.411Z,102258.52
2018-06-25T09:48:50.958Z,102260.80
2018-06-25T09:51:20.530Z,102261.91
2018-06-25T09:53:49.986Z,102263.79
2018-06-25T09:56:19.511Z,102262.00
2018-06-25T09:58:49.079Z,102269.36
2018-06-25T10:01:18.689Z,102263.90
2018-06-25T10:03:48.183Z,102265.86
2018-06-25T10:06:17.680Z,102266.38
2018-06-25T10:08:47.244Z,102262.31
2018-06-25T10:11:16.762Z,102255.72
2018-06-25T10:13:46.227Z,102260.85
2018-06-25T10:16:15.756Z,102252.99
2018-06-25T10:18:45.674Z,102257.94
2018-06-25T10:21:15.223Z,102258.39
2018-06-25T10:23:44.793Z,102263.31
2018-06-25T10:26:14.373Z,102255.37
2018-06-25T10:28:44.102Z,102255.98
2018-06-25T10:31:13.606Z,102257.57
2018-06-25T10:33:43.154Z,102259.50
2018-06-25T10:36:12.831Z,102265.94
2018-06-25T10:38:43.011Z,102260.37
2018-06-25T10:41:12.987Z,102259.72
2018-06-25T10:43:42.472Z,102259.59
2018-06-25T10:46:12.855Z,102265.41
2018-06-25T10:48:42.452Z,102266.34
2018-06-25T10:51:12.841Z,102267.63
2018-06-25T10:53:42.355Z,102266.41
2018-06-25T10:56:11.845Z,102262.48
2018-06-25T10:58:41.442Z,102268.14
2018-06-25T11:01:11.129Z,102268.50
2018-06-25T11:03:40.726Z,102267.21
2018-06-25T11:06:10.827Z,102268.15
2018-06-25T11:08:41.204Z,102266.02
2018-06-25T11:11:10.799Z,102275.36
2018-06-25T11:13:40.364Z,102267.02
2018-06-25T11:16:16.549Z,102259.03
2018-06-25T11:18:46.075Z,102262.47
2018-06-25T11:21:17.116Z,102263.17
2018-06-25T11:23:46.703Z,102255.94
2018-06-25T11:26:16.201Z,102251.87
2018-06-25T11:28:45.713Z,102250.58
2018-06-25T11:31:15.389Z,102253.48
2018-06-25T11:33:44.942Z,102259.66
2018-06-25T11:36:14.600Z,102256.09
2018-06-25T11:38:44.138Z,102257.44
2018-06-25T11:41:13.873Z,102254.95
2018-06-25T11:43:43.348Z,102257.45
2018-06-25T11:46:12.876Z,102252.87
2018-06-25T11:48:42.554Z,102254.79
2018-06-25T11:51:12.753Z,102256.23
2018-06-25T11:53:42.242Z,102262.81
2018-06-25T11:56:11.687Z,102262.62
2018-06-25T11:58:41.200Z,102265.70
2018-06-25T12:01:10.742Z,102259.11
2018-06-25T12:03:40.219Z,102258.61
2018-06-25T12:06:09.743Z,102251.37
2018-06-25T12:08:39.544Z,102255.34
2018-06-25T12:11:09.046Z,102249.89
2018-06-25T12:13:38.514Z,102250.22
2018-06-25T12:16:07.989Z,102244.72
2018-06-25T12:18:37.557Z,102242.41
2018-06-25T12:21:07.263Z,102236.15
2018-06-25T12:23:36.710Z,102233.45
2018-06-25T12:26:06.384Z,102236.06
2018-06-25T12:28:36.029Z,102238.00
2018-06-25T12:31:05.651Z,102234.20
2018-06-25T12:33:35.104Z,102226.59
2018-06-25T12:36:05.076Z,102227.59
2018-06-25T12:38:34.692Z,102218.64
2018-06-25T12:41:04.293Z,102223.97
2018-06-25T12:43:33.806Z,102218.38
2018-06-25T12:46:03.251Z,102225.22
2018-06-25T12:48:32.838Z,102223.22
2018-06-25T12:51:02.302Z,102223.53
2018-06-25T12:53:31.796Z,102212.41
2018-06-25T12:56:01.342Z,102211.78
2018-06-25T12:58:30.927Z,102213.63
2018-06-25T13:01:00.472Z,102212.74
2018-06-25T13:03:29.934Z,102212.88
2018-06-25T13:05:59.233Z,102218.88
2018-06-25T13:08:28.831Z,102214.33
2018-06-25T13:10:58.304Z,102215.05
2018-06-25T13:13:27.842Z,102217.52
2018-06-25T13:15:57.386Z,102217.09
2018-06-25T13:18:27.123Z,102213.40
2018-06-25T13:20:56.700Z,102221.34
2018-06-25T13:23:26.166Z,102218.38
2018-06-25T13:25:55.886Z,102216.06
2018-06-25T13:28:28.782Z,102216.30
2018-06-25T13:30:58.302Z,102208.56
2018-06-25T13:33:27.752Z,102216.72
2018-06-25T13:35:57.390Z,102213.22
2018-06-25T13:38:26.940Z,102210.14
2018-06-25T13:40:56.373Z,102210.75
2018-06-25T13:43:25.794Z,102206.84
2018-06-25T13:45:55.205Z,102206.41
2018-06-25T13:48:24.867Z,102202.45
2018-06-25T13:50:54.200Z,102205.16
2018-06-25T13:53:23.618Z,102201.75
2018-06-25T13:55:53.113Z,102200.78
2018-06-25T13:58:22.664Z,102191.80
2018-06-25T14:00:52.098Z,102191.75
2018-06-25T14:03:21.630Z,102189.33
2018-06-25T14:05:51.459Z,102194.67
2018-06-25T14:08:20.872Z,102187.08
2018-06-25T14:10:51.189Z,102192.92
2018-06-25T14:13:20.629Z,102184.53
2018-06-25T14:15:50.171Z,102178.85
2018-06-25T14:18:19.857Z,102179.92
2018-06-25T14:20:49.467Z,102184.02
2018-06-25T14:23:19.113Z,102180.34
2018-06-25T14:25:53.769Z,102183.45
2018-06-25T14:28:28.483Z,102185.77
2018-06-25T14:31:03.112Z,102194.12
2018-06-25T14:33:37.765Z,102190.80
2018-06-25T14:36:08.919Z,102184.51
2018-06-25T14:38:38.449Z,102184.78
2018-06-25T14:41:07.983Z,102180.28
2018-06-25T14:43:37.561Z,102177.64
2018-06-25T14:46:07.242Z,102179.66
2018-06-25T14:48:36.751Z,102173.33
2018-06-25T14:51:06.374Z,102168.33
2018-06-25T14:53:35.866Z,102169.41
2018-06-25T14:56:05.948Z,102172.55
2018-06-25T14:58:35.474Z,102164.69
2018-06-25T15:01:04.957Z,102166.30
2018-06-25T15:03:34.621Z,102162.79
2018-06-25T15:06:04.179Z,102172.28
2018-06-25T15:08:37.002Z,102161.06
2018-06-25T15:11:06.642Z,102167.36
2018-06-25T15:13:36.114Z,102166.12
2018-06-25T15:16:05.580Z,102159.18
2018-06-25T15:18:35.162Z,102159.84
2018-06-25T15:21:04.869Z,102160.03
2018-06-25T15:23:34.320Z,102146.50
2018-06-25T15:26:03.799Z,102150.33
2018-06-25T15:28:33.299Z,102147.60
2018-06-25T15:31:02.979Z,102155.88
2018-06-25T15:33:32.463Z,102147.43
2018-06-25T15:36:01.975Z,102145.84
2018-06-25T15:38:31.498Z,102144.53
2018-06-25T15:41:00.984Z,102147.81
2018-06-25T15:43:30.498Z,102143.67
2018-06-25T15:46:00.076Z,102147.75
2018-06-25T15:48:29.555Z,102154.25
2018-06-25T15:50:59.045Z,102148.93
2018-06-25T15:53:28.568Z,102144.82
2018-06-25T15:55:58.148Z,102147.85
2018-06-25T15:58:27.610Z,102144.57
2018-06-25T16:00:57.127Z,102140.69
2018-06-25T16:03:26.780Z,102135.82
2018-06-25T16:05:56.345Z,102140.41
2018-06-25T16:08:25.850Z,102140.34
2018-06-25T16:10:55.403Z,102141.30
2018-06-25T16:13:24.918Z,102138.50
2018-06-25T16:15:54.394Z,102139.31
2018-06-25T16:18:23.963Z,102136.46
2018-06-25T16:20:53.513Z,102134.77
2018-06-25T16:23:23.131Z,102138.64
2018-06-25T16:25:52.601Z,102134.41
2018-06-25T16:28:22.141Z,102132.19
2018-06-25T16:30:51.668Z,102124.07
2018-06-25T16:33:21.198Z,102123.30
2018-06-25T16:35:50.689Z,102131.02
2018-06-25T16:38:20.153Z,102129.38
2018-06-25T16:40:49.684Z,102129.69
2018-06-25T16:43:19.124Z,102134.93
2018-06-25T16:45:48.674Z,102127.02
2018-06-25T16:48:18.110Z,102129.72
2018-06-25T16:50:47.598Z,102124.63
2018-06-25T16:53:17.148Z,102122.59
2018-06-25T16:55:46.722Z,102118.24
2018-06-25T16:58:16.239Z,102125.19
2018-06-25T17:00:45.826Z,102118.06
2018-06-25T17:03:15.354Z,102127.70
2018-06-25T17:05:44.900Z,102129.39
2018-06-25T17:08:14.459Z,102120.41
2018-06-25T17:10:44.015Z,102119.56
2018-06-25T17:13:13.496Z,102117.25
2018-06-25T17:15:43.008Z,102118.23
2018-06-25T17:18:12.427Z,102115.66
2018-06-25T17:20:41.948Z,102118.69
2018-06-25T17:23:11.460Z,102116.12
2018-06-25T17:25:40.969Z,102112.26
2018-06-25T17:28:11.051Z,102101.42
2018-06-25T17:30:40.626Z,102098.97
2018-06-25T17:33:10.233Z,102097.53
2018-06-25T17:35:39.689Z,102095.54
2018-06-25T17:38:09.157Z,102093.09
2018-06-25T17:40:39.077Z,102093.42
2018-06-25T17:43:08.615Z,102101.21
2018-06-25T17:45:38.057Z,102095.95
2018-06-25T17:48:07.642Z,102097.20
2018-06-25T17:50:37.075Z,102097.21
2018-06-25T17:53:06.713Z,102106.52
2018-06-25T17:55:36.259Z,102099.00
2018-06-25T17:58:05.892Z,102101.25
2018-06-25T18:00:35.377Z,102102.80
2018-06-25T18:03:05.404Z,102101.77
2018-06-25T18:05:34.832Z,102101.61
2018-06-25T18:08:04.373Z,102101.80
2018-06-25T18:10:33.927Z,102106.12
2018-06-25T18:13:03.417Z,102110.80
2018-06-25T18:15:32.877Z,102110.95
2018-06-25T18:18:02.490Z,102109.07
2018-06-25T18:20:32.262Z,102112.53
2018-06-25T18:23:01.724Z,102111.95
2018-06-25T18:25:31.392Z,102115.75
2018-06-25T18:28:01.084Z,102123.51
2018-06-25T18:30:30.588Z,102120.92
2018-06-25T18:33:00.035Z,102112.74
2018-06-25T18:35:29.635Z,102117.92
2018-06-25T18:37:59.148Z,102116.80
2018-06-25T18:40:29.272Z,102125.63
2018-06-25T18:42:58.681Z,102119.83
2018-06-25T18:45:28.193Z,102128.91
2018-06-25T18:47:57.650Z,102128.66
2018-06-25T18:50:27.243Z,102128.45
2018-06-25T18:52:56.776Z,102137.28
2018-06-25T18:55:26.385Z,102127.02
2018-06-25T18:57:55.812Z,102135.29
2018-06-25T19:00:25.307Z,102134.98
2018-06-25T19:02:54.846Z,102136.88
2018-06-25T19:05:24.393Z,102129.21
2018-06-25T19:07:53.860Z,102137.44
2018-06-25T19:10:23.187Z,102132.34
2018-06-25T19:12:53.781Z,102134.49
2018-06-25T19:15:24.671Z,102136.38
2018-06-25T19:17:54.351Z,102130.69
2018-06-25T19:20:24.770Z,102137.44
2018-06-25T19:22:54.963Z,102136.72
2018-06-25T19:25:24.514Z,102130.54
2018-06-25T19:27:54.801Z,102132.73
2018-06-25T19:30:25.430Z,102140.11
2018-06-25T19:32:55.464Z,102133.85
2018-06-25T19:35:26.193Z,102135.07
2018-06-25T19:37:56.748Z,102138.42
2018-06-25T19:40:26.726Z,102143.58
2018-06-25T19:42:56.630Z,102146.80
2018-06-25T19:45:26.791Z,102150.00
2018-06-25T19:47:55.994Z,102147.81
2018-06-25T19:50:25.453Z,102151.58
2018-06-25T19:53:02.059Z,102153.00
2018-06-25T19:55:32.434Z,102159.77
2018-06-25T19:58:03.147Z,102165.70
2018-06-25T20:00:33.302Z,102169.04
2018-06-25T20:03:03.795Z,102163.70
2018-06-25T20:05:34.138Z,102169.39
2018-06-25T20:08:04.090Z,102167.27
2018-06-25T20:10:34.928Z,102169.98
2018-06-25T20:13:05.550Z,102178.80
2018-06-25T20:15:35.085Z,102176.42
2018-06-25T20:18:04.707Z,102183.09
2018-06-25T20:20:34.269Z,102181.88
2018-06-25T20:23:03.937Z,102181.88
2018-06-25T20:25:33.506Z,102182.94
2018-06-25T20:28:02.963Z,102189.09
2018-06-25T20:30:32.538Z,102185.38
2018-06-25T20:33:02.105Z,102194.73
2018-06-25T20:35:31.676Z,102195.70
2018-06-25T20:38:01.217Z,102201.30
2018-06-25T20:40:31.004Z,102209.50
2018-06-25T20:43:00.601Z,102211.14
2018-06-25T20:45:30.061Z,102222.41
2018-06-25T20:47:59.495Z,102218.30
2018-06-25T20:50:28.982Z,102213.66
2018-06-25T20:52:58.481Z,102218.48
2018-06-25T20:55:27.971Z,102218.84
2018-06-25T20:57:57.500Z,102215.60
2018-06-25T21:00:27.156Z,102219.66
2018-06-25T21:02:56.771Z,102221.27
2018-06-25T21:05:26.268Z,102219.20
2018-06-25T21:07:55.815Z,102224.13
2018-06-25T21:10:25.396Z,102227.69
2018-06-25T21:15:22.997Z,102223.50
2018-06-25T21:17:52.688Z,102223.19
2018-06-25T21:20:22.371Z,102225.22
2018-06-25T21:22:51.824Z,102227.80
2018-06-25T21:25:21.360Z,102228.15
2018-06-25T21:27:50.909Z,102225.83
2018-06-25T21:30:20.375Z,102230.14
2018-06-25T21:32:49.856Z,102224.22
2018-06-25T21:35:19.388Z,102236.09
2018-06-25T21:37:48.991Z,102230.48
2018-06-25T21:40:18.436Z,102228.78
2018-06-25T21:42:50.898Z,102226.32
2018-06-25T21:45:20.360Z,102218.88
2018-06-25T21:47:49.947Z,102230.52
2018-06-25T21:50:19.463Z,102224.22
2018-06-25T21:52:48.883Z,102226.32
2018-06-25T21:55:18.336Z,102223.98
2018-06-25T21:57:47.919Z,102221.74
2018-06-25T22:00:17.503Z,102219.77
2018-06-25T22:02:46.934Z,102215.27
2018-06-25T22:05:16.433Z,102222.36
2018-06-25T22:07:46.052Z,102225.22
2018-06-25T22:10:15.466Z,102221.50
2018-06-25T22:12:44.994Z,102219.14
2018-06-25T22:15:14.585Z,102224.00
2018-06-25T22:17:44.112Z,102221.27
2018-06-25T22:20:13.541Z,102225.59
2018-06-25T22:22:43.019Z,102232.55
2018-06-25T22:25:12.594Z,102234.14
2018-06-25T22:27:42.024Z,102227.94
2018-06-25T22:30:11.469Z,102229.41
2018-06-25T22:32:40.987Z,102231.28
2018-06-25T22:35:11.189Z,102230.77
2018-06-25T22:37:40.660Z,102237.34
2018-06-25T22:40:10.129Z,102241.17
2018-06-25T22:42:41.698Z,102237.38
2018-06-25T22:45:11.139Z,102239.81
2018-06-25T22:47:40.670Z,102235.74
2018-06-25T22:50:10.251Z,102240.61
2018-06-25T22:52:39.749Z,102245.92
2018-06-25T22:55:09.193Z,102244.39
2018-06-25T22:57:38.735Z,102247.37
2018-06-25T23:00:08.294Z,102253.16
2018-06-25T23:02:37.767Z,102246.46
2018-06-25T23:05:07.356Z,102248.83
2018-06-25T23:07:36.827Z,102246.96
2018-06-25T23:10:06.738Z,102244.59
2018-06-25T23:12:36.316Z,102247.66
2018-06-25T23:15:05.937Z,102250.27
2018-06-25T23:17:35.384Z,102243.84
2018-06-25T23:20:05.132Z,102249.42
2018-06-25T23:22:34.588Z,102247.94
2018-06-25T23:25:04.142Z,102247.57
2018-06-25T23:27:33.609Z,102243.58
2018-06-25T23:30:03.061Z,102241.22
2018-06-25T23:32:32.498Z,102241.39
2018-06-25T23:35:02.073Z,102235.52
2018-06-25T23:37:31.525Z,102241.81
2018-06-25T23:40:00.947Z,102235.81
2018-06-25T23:42:30.435Z,102241.88
2018-06-25T23:44:59.852Z,102242.70
2018-06-25T23:47:29.273Z,102237.48
2018-06-25T23:49:58.691Z,102241.07
2018-06-25T23:52:28.296Z,102243.73
2018-06-25T23:54:57.843Z,102253.16
2018-06-25T23:57:27.246Z,102245.48
2018-06-25T23:59:56.658Z,102244.38
